createdAt,value
2022-09-23T00:00:44.235Z,99656.47
2022-09-23T00:03:46.236Z,99655.50
2022-09-23T00:06:48.018Z,99647.56
2022-09-23T00:09:50.378Z,99655.50
2022-09-23T00:12:52.530Z,99643.81
2022-09-23T00:15:54.206Z,99646.34
2022-09-23T00:18:56.116Z,99652.59
2022-09-23T00:21:57.786Z,99645.63
2022-09-23T00:24:59.491Z,99642.41
2022-09-23T00:28:01.972Z,99642.25
2022-09-23T00:31:05.988Z,99641.44
2022-09-23T00:34:11.470Z,99642.25
2022-09-23T00:37:13.579Z,99638.19
2022-09-23T00:40:15.526Z,99635.00
2022-09-23T00:43:17.652Z,99630.09
2022-09-23T00:46:42.148Z,99633.13
2022-09-23T00:49:45.865Z,99628.22
2022-09-23T00:52:49.177Z,99621.50
2022-09-23T00:55:54.700Z,99619.38
2022-09-23T00:58:56.655Z,99618.81
2022-09-23T01:02:01.148Z,99621.00
2022-09-23T01:05:05.177Z,99621.50
2022-09-23T01:08:10.153Z,99636.69
2022-09-23T01:11:25.835Z,99625.50
2022-09-23T01:14:45.675Z,99624.97
2022-09-23T01:18:02.391Z,99624.34
2022-09-23T01:21:30.654Z,99635.28
2022-09-23T01:24:47.203Z,99629.88
2022-09-23T01:27:51.634Z,99631.81
2022-09-23T01:31:14.314Z,99628.44
2022-09-23T01:34:26.286Z,99621.47
2022-09-23T01:37:49.751Z,99619.09
2022-09-23T01:41:00.762Z,99621.16
2022-09-23T01:44:13.448Z,99618.88
2022-09-23T01:47:17.406Z,99619.25
2022-09-23T01:50:49.130Z,99621.22
2022-09-23T01:54:04.689Z,99623.38
2022-09-23T01:57:16.252Z,99621.97
2022-09-23T02:00:19.409Z,99624.13
2022-09-23T02:03:50.630Z,99619.00
2022-09-23T02:06:58.339Z,99619.09
2022-09-23T02:10:13.078Z,99616.72
2022-09-23T02:13:24.529Z,99615.97
2022-09-23T02:16:55.924Z,99617.94
2022-09-23T02:20:03.275Z,99614.59
2022-09-23T02:23:36.792Z,99612.31
2022-09-23T02:26:50.374Z,99609.78
2022-09-23T02:30:09.593Z,99610.88
2022-09-23T02:33:26.984Z,99616.41
2022-09-23T02:36:49.664Z,99607.78
2022-09-23T02:39:57.173Z,99609.81
2022-09-23T02:43:11.260Z,99619.66
2022-09-23T02:46:13.222Z,99605.88
2022-09-23T02:49:28.350Z,99611.16
2022-09-23T02:52:30.092Z,99606.22
2022-09-23T02:55:32.631Z,99597.75
2022-09-23T02:58:34.577Z,99603.13
2022-09-23T03:01:56.433Z,99610.69
2022-09-23T03:05:24.685Z,99604.72
2022-09-23T03:08:37.177Z,99605.06
2022-09-23T03:11:43.159Z,99608.78
2022-09-23T03:14:54.948Z,99607.13
2022-09-23T03:18:14.464Z,99602.81
2022-09-23T03:21:32.359Z,99595.13
2022-09-23T03:24:36.614Z,99592.75
2022-09-23T03:27:42.418Z,99595.47
2022-09-23T03:30:44.866Z,99592.97
2022-09-23T03:33:59.019Z,99589.63
2022-09-23T03:37:11.871Z,99588.19
2022-09-23T03:40:20.651Z,99581.34
2022-09-23T03:43:22.631Z,99586.88
2022-09-23T03:46:30.234Z,99583.63
2022-09-23T03:49:37.820Z,99575.84
2022-09-23T03:52:40.160Z,99575.72
2022-09-23T03:55:41.871Z,99573.19
2022-09-23T03:58:45.495Z,99576.44
2022-09-23T04:01:47.475Z,99584.94
2022-09-23T04:04:49.447Z,99585.19
2022-09-23T04:07:51.277Z,99581.72
2022-09-23T04:10:54.873Z,99579.09
2022-09-23T04:13:56.924Z,99574.03
2022-09-23T04:16:58.624Z,99577.88
2022-09-23T04:20:00.419Z,99577.25
2022-09-23T04:23:02.110Z,99585.19
2022-09-23T04:26:05.837Z,99585.09
2022-09-23T04:29:08.059Z,99578.84
2022-09-23T04:32:10.320Z,99588.56
2022-09-23T04:35:11.984Z,99576.44
2022-09-23T04:38:13.744Z,99582.53
2022-09-23T04:41:16.387Z,99574.63
2022-09-23T04:44:18.878Z,99574.53
2022-09-23T04:47:20.578Z,99573.78
2022-09-23T04:50:22.741Z,99578.97
2022-09-23T04:53:24.461Z,99572.84
2022-09-23T04:56:28.706Z,99571.75
2022-09-23T04:59:30.435Z,99573.44
2022-09-23T05:02:32.338Z,99576.81
2022-09-23T05:05:34.305Z,99574.66
2022-09-23T05:08:36.495Z,99580.50
2022-09-23T05:11:38.179Z,99584.56
2022-09-23T05:14:39.942Z,99582.19
2022-09-23T05:17:44.905Z,99591.75
2022-09-23T05:20:53.380Z,99578.78
2022-09-23T05:24:00.566Z,99575.38
2022-09-23T05:27:02.830Z,99577.19
2022-09-23T05:30:04.940Z,99578.22
2022-09-23T05:33:06.636Z,99580.09
2022-09-23T05:36:08.653Z,99574.63
2022-09-23T05:39:10.386Z,99575.31
2022-09-23T05:42:12.522Z,99578.34
2022-09-23T05:45:14.523Z,99574.59
2022-09-23T05:48:16.595Z,99574.25
2022-09-23T05:51:21.573Z,99577.50
2022-09-23T05:54:23.272Z,99570.47
2022-09-23T05:57:25.147Z,99576.00
2022-09-23T06:00:27.098Z,99578.16
2022-09-23T06:03:28.890Z,99577.25
2022-09-23T06:06:41.570Z,99579.38
2022-09-23T06:09:43.332Z,99588.16
2022-09-23T06:12:45.043Z,99575.91
2022-09-23T06:15:46.847Z,99575.34
2022-09-23T06:18:48.568Z,99575.91
2022-09-23T06:21:50.336Z,99579.75
2022-09-23T06:24:52.355Z,99583.91
2022-09-23T06:27:55.113Z,99579.53
2022-09-23T06:31:03.292Z,99578.53
2022-09-23T06:34:11.968Z,99585.22
2022-09-23T06:37:19.790Z,99579.09
2022-09-23T06:40:22.834Z,99581.63
2022-09-23T06:43:26.175Z,99578.47
2022-09-23T06:46:28.083Z,99577.66
2022-09-23T06:49:29.867Z,99574.53
2022-09-23T06:52:31.930Z,99576.56
2022-09-23T06:55:33.646Z,99577.94
2022-09-23T06:58:36.376Z,99571.69
2022-09-23T07:01:38.341Z,99568.19
2022-09-23T07:04:40.165Z,99576.91
2022-09-23T07:07:42.061Z,99581.41
2022-09-23T07:10:48.212Z,99579.00
2022-09-23T07:13:50.026Z,99576.06
2022-09-23T07:16:53.286Z,99578.31
2022-09-23T07:19:55.025Z,99582.41
2022-09-23T07:22:57.071Z,99584.56
2022-09-23T07:25:58.843Z,99582.22
2022-09-23T07:29:05.204Z,99587.47
2022-09-23T07:32:13.791Z,99588.72
2022-09-23T07:35:17.039Z,99587.28
2022-09-23T07:38:18.859Z,99579.72
2022-09-23T07:41:20.807Z,99586.72
2022-09-23T07:44:22.673Z,99581.22
2022-09-23T07:47:24.396Z,99576.06
2022-09-23T07:50:26.286Z,99579.44
2022-09-23T07:53:28.564Z,99578.88
2022-09-23T07:56:30.831Z,99576.91
2022-09-23T07:59:32.596Z,99583.88
2022-09-23T08:02:34.317Z,99585.88
2022-09-23T08:05:36.525Z,99585.53
2022-09-23T08:08:40.731Z,99582.66
2022-09-23T08:11:42.660Z,99588.84
2022-09-23T08:14:44.677Z,99582.84
2022-09-23T08:17:46.805Z,99590.03
2022-09-23T08:20:48.488Z,99575.09
2022-09-23T08:23:51.864Z,99581.13
2022-09-23T08:26:54.867Z,99571.72
2022-09-23T08:29:56.675Z,99560.69
2022-09-23T08:32:58.634Z,99563.16
2022-09-23T08:36:02.265Z,99549.81
2022-09-23T08:39:06.080Z,99556.16
2022-09-23T08:42:28.245Z,99552.91
2022-09-23T08:45:29.972Z,99546.53
2022-09-23T08:48:44.297Z,99544.53
2022-09-23T08:51:48.460Z,99546.47
2022-09-23T08:54:55.148Z,99544.34
2022-09-23T08:58:25.683Z,99542.78
2022-09-23T09:01:40.635Z,99538.81
2022-09-23T09:04:45.056Z,99533.91
2022-09-23T09:07:46.919Z,99539.13
2022-09-23T09:10:49.632Z,99538.84
2022-09-23T09:14:00.882Z,99538.69
2022-09-23T09:17:13.858Z,99524.28
2022-09-23T09:20:17.281Z,99524.84
2022-09-23T09:23:27.233Z,99528.16
2022-09-23T09:26:34.229Z,99527.13
2022-09-23T09:29:41.158Z,99520.06
2022-09-23T09:32:50.602Z,99510.91
2022-09-23T09:36:08.854Z,99511.53
2022-09-23T09:39:13.656Z,99499.41
2022-09-23T09:42:26.066Z,99490.91
2022-09-23T09:45:59.170Z,99482.16
2022-09-23T09:49:11.042Z,99474.66
2022-09-23T09:52:22.622Z,99469.72
2022-09-23T09:55:27.370Z,99473.00
2022-09-23T09:58:41.666Z,99474.41
2022-09-23T10:01:43.524Z,99476.97
2022-09-23T10:04:45.521Z,99470.81
2022-09-23T10:07:48.511Z,99465.13
2022-09-23T10:10:59.309Z,99468.41
2022-09-23T10:14:24.546Z,99464.31
2022-09-23T10:17:34.318Z,99470.34
2022-09-23T10:20:38.234Z,99463.91
2022-09-23T10:23:43.717Z,99463.88
2022-09-23T10:27:04.331Z,99468.56
2022-09-23T10:30:21.622Z,99456.00
2022-09-23T10:33:27.875Z,99458.16
2022-09-23T10:36:33.189Z,99454.88
2022-09-23T10:39:53.709Z,99456.13
2022-09-23T10:43:32.144Z,99453.44
2022-09-23T10:46:46.012Z,99448.28
2022-09-23T10:50:14.538Z,99446.38
2022-09-23T10:53:42.076Z,99446.16
2022-09-23T10:56:50.769Z,99437.84
2022-09-23T11:00:23.602Z,99436.84
2022-09-23T11:03:38.487Z,99441.19
2022-09-23T11:06:40.137Z,99432.28
2022-09-23T11:09:52.901Z,99421.53
2022-09-23T11:13:07.847Z,99419.50
2022-09-23T11:16:40.393Z,99417.88
2022-09-23T11:20:01.557Z,99410.63
2022-09-23T11:23:22.179Z,99416.00
2022-09-23T11:26:33.432Z,99399.25
2022-09-23T11:29:53.543Z,99394.69
2022-09-23T11:33:14.494Z,99394.28
2022-09-23T11:36:39.887Z,99387.22
2022-09-23T11:39:47.690Z,99385.38
2022-09-23T11:43:23.540Z,99368.19
2022-09-23T11:46:55.791Z,99367.72
2022-09-23T11:50:14.737Z,99362.13
2022-09-23T11:53:34.411Z,99357.19
2022-09-23T11:56:57.042Z,99360.50
2022-09-23T12:00:04.002Z,99346.19
2022-09-23T12:03:42.805Z,99343.06
2022-09-23T12:06:50.723Z,99341.03
2022-09-23T12:10:18.563Z,99339.56
2022-09-23T12:13:34.200Z,99330.47
2022-09-23T12:17:07.166Z,99326.13
2022-09-23T12:20:30.651Z,99325.88
2022-09-23T12:23:35.605Z,99320.19
2022-09-23T12:26:39.137Z,99323.13
2022-09-23T12:29:41.566Z,99311.88
2022-09-23T12:32:44.050Z,99308.47
2022-09-23T12:35:46.479Z,99314.63
2022-09-23T12:38:51.793Z,99313.25
2022-09-23T12:42:15.572Z,99309.00
2022-09-23T12:45:32.863Z,99305.91
2022-09-23T12:49:00.564Z,99307.06
2022-09-23T12:52:17.433Z,99298.16
2022-09-23T12:55:25.122Z,99297.38
2022-09-23T12:59:20.249Z,99287.94
2022-09-23T13:02:27.775Z,99290.53
2022-09-23T13:05:48.864Z,99279.81
2022-09-23T13:08:52.820Z,99277.75
2022-09-23T13:11:59.901Z,99269.31
2022-09-23T13:15:06.369Z,99271.00
2022-09-23T13:18:22.991Z,99267.97
2022-09-23T13:21:42.706Z,99268.25
2022-09-23T13:24:46.965Z,99266.09
2022-09-23T13:27:52.867Z,99260.72
2022-09-23T13:30:54.953Z,99254.72
2022-09-23T13:34:06.798Z,99255.28
2022-09-23T13:37:22.440Z,99246.22
2022-09-23T13:40:27.761Z,99248.97
2022-09-23T13:43:40.275Z,99245.28
2022-09-23T13:46:46.958Z,99250.44
2022-09-23T13:49:48.829Z,99245.31
2022-09-23T13:52:56.674Z,99235.13
2022-09-23T13:56:12.356Z,99234.56
2022-09-23T13:59:29.646Z,99236.00
2022-09-23T14:02:31.569Z,99227.81
2022-09-23T14:05:35.922Z,99225.28
2022-09-23T14:08:45.817Z,99231.28
2022-09-23T14:11:50.363Z,99227.09
2022-09-23T14:14:53.078Z,99221.88
2022-09-23T14:18:04.719Z,99220.66
2022-09-23T14:21:25.836Z,99221.38
2022-09-23T14:24:30.383Z,99211.94
2022-09-23T14:27:36.144Z,99214.34
2022-09-23T14:30:38.514Z,99205.25
2022-09-23T14:33:42.321Z,99202.56
2022-09-23T14:37:03.047Z,99194.78
2022-09-23T14:40:11.627Z,99194.59
2022-09-23T14:43:31.778Z,99189.25
2022-09-23T14:46:39.033Z,99196.75
2022-09-23T14:50:07.673Z,99182.97
2022-09-23T14:53:24.210Z,99181.81
2022-09-23T14:56:25.974Z,99187.88
2022-09-23T14:59:36.213Z,99181.47
2022-09-23T15:02:40.320Z,99187.25
2022-09-23T15:05:47.786Z,99175.47
2022-09-23T15:08:51.356Z,99183.16
2022-09-23T15:12:06.816Z,99175.97
2022-09-23T15:15:13.601Z,99175.97
2022-09-23T15:18:34.411Z,99164.19
2022-09-23T15:21:44.134Z,99165.00
2022-09-23T15:24:46.587Z,99165.28
2022-09-23T15:28:00.541Z,99162.56
2022-09-23T15:31:03.113Z,99165.72
2022-09-23T15:34:09.884Z,99162.03
2022-09-23T15:37:14.496Z,99164.94
2022-09-23T15:40:28.372Z,99154.81
2022-09-23T15:43:30.163Z,99156.88
2022-09-23T15:46:33.683Z,99150.06
2022-09-23T15:49:36.894Z,99153.16
2022-09-23T15:52:39.456Z,99152.34
2022-09-23T15:55:41.218Z,99148.19
2022-09-23T15:58:43.116Z,99148.38
2022-09-23T16:01:45.949Z,99159.13
2022-09-23T16:04:50.293Z,99158.47
2022-09-23T16:07:52.492Z,99150.59
2022-09-23T16:10:55.243Z,99153.22
2022-09-23T16:13:57.367Z,99146.75
2022-09-23T16:16:59.227Z,99147.72
2022-09-23T16:20:01.152Z,99137.16
2022-09-23T16:23:07.638Z,99149.66
2022-09-23T16:26:30.446Z,99156.97
2022-09-23T16:29:32.368Z,99158.13
2022-09-23T16:32:34.112Z,99153.69
2022-09-23T16:35:37.435Z,99151.88
2022-09-23T16:38:39.183Z,99151.13
2022-09-23T16:41:43.480Z,99151.22
2022-09-23T16:44:45.350Z,99148.59
2022-09-23T16:47:49.011Z,99145.78
2022-09-23T16:50:54.801Z,99140.94
2022-09-23T16:53:58.873Z,99150.66
2022-09-23T16:57:00.653Z,99147.66
2022-09-23T17:00:23.692Z,99147.94
2022-09-23T17:03:40.988Z,99146.56
2022-09-23T17:06:50.257Z,99142.84
2022-09-23T17:09:52.335Z,99150.34
2022-09-23T17:12:54.726Z,99145.44
2022-09-23T17:15:56.778Z,99146.56
2022-09-23T17:18:58.795Z,99153.66
2022-09-23T17:22:00.622Z,99146.56
2022-09-23T17:25:03.915Z,99141.94
2022-09-23T17:28:05.870Z,99141.84
2022-09-23T17:31:08.707Z,99140.91
2022-09-23T17:34:10.665Z,99155.00
2022-09-23T17:37:12.487Z,99145.19
2022-09-23T17:40:14.593Z,99150.06
2022-09-23T17:43:20.212Z,99146.75
2022-09-23T17:46:22.215Z,99142.97
2022-09-23T17:49:24.516Z,99146.19
2022-09-23T17:52:26.349Z,99152.34
2022-09-23T17:55:28.103Z,99155.38
2022-09-23T17:58:35.702Z,99151.84
2022-09-23T18:01:37.443Z,99150.19
2022-09-23T18:04:39.212Z,99147.91
2022-09-23T18:07:40.901Z,99151.84
2022-09-23T18:10:42.882Z,99148.00
2022-09-23T18:14:22.937Z,99158.06
2022-09-23T18:17:24.746Z,99157.69
2022-09-23T18:20:26.447Z,99158.50
2022-09-23T18:23:28.554Z,99144.13
2022-09-23T18:26:30.667Z,99149.31
2022-09-23T18:29:33.385Z,99142.97
2022-09-23T18:32:35.401Z,99144.31
2022-09-23T18:35:37.301Z,99135.00
2022-09-23T18:38:40.060Z,99146.50
2022-09-23T18:41:42.373Z,99140.19
2022-09-23T18:44:44.071Z,99140.72
2022-09-23T18:48:04.061Z,99140.34
2022-09-23T18:51:08.663Z,99142.88
2022-09-23T18:54:10.460Z,99141.38
2022-09-23T18:57:14.721Z,99140.06
2022-09-23T19:00:17.747Z,99136.75
2022-09-23T19:03:19.431Z,99140.44
2022-09-23T19:06:21.450Z,99140.72
2022-09-23T19:09:23.799Z,99133.25
2022-09-23T19:12:25.496Z,99131.13
2022-09-23T19:15:27.340Z,99126.50
2022-09-23T19:18:30.055Z,99132.56
2022-09-23T19:21:33.463Z,99127.84
2022-09-23T19:24:35.236Z,99123.34
2022-09-23T19:27:36.987Z,99119.84
2022-09-23T19:30:39.008Z,99120.88
2022-09-23T19:33:46.212Z,99118.72
2022-09-23T19:36:50.885Z,99115.56
2022-09-23T19:39:52.654Z,99122.91
2022-09-23T19:42:55.095Z,99115.91
2022-09-23T19:45:56.901Z,99121.59
2022-09-23T19:49:00.219Z,99121.94
2022-09-23T19:52:02.146Z,99118.63
2022-09-23T19:55:04.551Z,99122.00
2022-09-23T19:58:06.873Z,99114.34
2022-09-23T20:01:08.893Z,99125.53
2022-09-23T20:04:11.358Z,99121.59
2022-09-23T20:07:13.113Z,99123.59
2022-09-23T20:10:15.330Z,99115.13
2022-09-23T20:13:19.983Z,99116.09
2022-09-23T20:16:21.685Z,99108.81
2022-09-23T20:19:23.589Z,99106.97
2022-09-23T20:22:29.609Z,99109.34
2022-09-23T20:25:53.988Z,99109.03
2022-09-23T20:28:55.720Z,99111.53
2022-09-23T20:31:58.652Z,99113.03
2022-09-23T20:35:00.953Z,99105.41
2022-09-23T20:38:07.304Z,99110.25
2022-09-23T20:41:10.098Z,99101.44
2022-09-23T20:44:14.975Z,99114.63
2022-09-23T20:47:18.097Z,99104.00
2022-09-23T20:50:19.872Z,99111.38
2022-09-23T20:53:23.594Z,99102.28
2022-09-23T20:56:26.018Z,99101.78
2022-09-23T20:59:27.799Z,99103.34
2022-09-23T21:02:29.819Z,99094.72
2022-09-23T21:05:31.626Z,99108.69
2022-09-23T21:08:34.917Z,99101.53
2022-09-23T21:11:36.769Z,99108.22
2022-09-23T21:14:39.459Z,99102.53
2022-09-23T21:17:41.115Z,99105.88
2022-09-23T21:20:43.158Z,99105.72
2022-09-23T21:23:45.957Z,99100.88
2022-09-23T21:26:47.839Z,99097.06
2022-09-23T21:29:49.613Z,99094.72
2022-09-23T21:32:51.320Z,99099.72
2022-09-23T21:35:57.308Z,99090.53
2022-09-23T21:39:01.704Z,99094.34
2022-09-23T21:42:03.506Z,99092.84
2022-09-23T21:45:06.251Z,99100.00
2022-09-23T21:48:08.200Z,99097.59
2022-09-23T21:51:12.961Z,99097.44
2022-09-23T21:54:16.992Z,99102.38
2022-09-23T21:57:18.854Z,99104.03
2022-09-23T22:00:20.588Z,99101.34
2022-09-23T22:03:22.500Z,99096.63
2022-09-23T22:06:28.442Z,99093.97
2022-09-23T22:09:30.125Z,99097.31
2022-09-23T22:12:32.625Z,99090.47
2022-09-23T22:15:37.550Z,99094.41
2022-09-23T22:18:39.194Z,99090.22
2022-09-23T22:21:42.393Z,99088.59
2022-09-23T22:24:46.050Z,99091.22
2022-09-23T22:28:06.582Z,99096.34
2022-09-23T22:31:43.810Z,99091.03
2022-09-23T22:34:50.926Z,99094.28
2022-09-23T22:37:54.720Z,99098.59
2022-09-23T22:40:56.735Z,99093.22
2022-09-23T22:44:00.534Z,99094.75
2022-09-23T22:47:02.397Z,99090.84
2022-09-23T22:50:09.191Z,99086.66
2022-09-23T22:53:11.048Z,99086.38
2022-09-23T22:56:12.784Z,99082.59
2022-09-23T22:59:14.556Z,99076.72
2022-09-23T23:02:21.460Z,99080.34
2022-09-23T23:05:23.145Z,99080.34
2022-09-23T23:08:24.814Z,99083.63
2022-09-23T23:11:26.497Z,99080.69
2022-09-23T23:14:28.177Z,99078.31
2022-09-23T23:17:29.918Z,99080.94
2022-09-23T23:20:32.311Z,99076.28
2022-09-23T23:23:43.105Z,99077.47
2022-09-23T23:26:45.354Z,99080.56
2022-09-23T23:29:47.255Z,99061.09
2022-09-23T23:32:50.029Z,99077.47
2022-09-23T23:35:51.755Z,99070.13
2022-09-23T23:38:53.572Z,99070.75
2022-09-23T23:41:57.239Z,99065.06
2022-09-23T23:44:59.122Z,99059.69
2022-09-23T23:48:00.961Z,99060.31
2022-09-23T23:51:05.821Z,99071.53
2022-09-23T23:54:07.887Z,99070.44
2022-09-23T23:57:09.686Z,99076.34
